^^
Saratoga-Weather Station Historical Data
Daily Summary for June 22, 2022 Units:  Both    English   Metric
Daily Weekly Monthly Yearly Custom
  High: Low: Average:
Temperature: 79.3 °F /  26.3 °C 63.3 °F /  17.4 °C 69.8 °F /  21 °C
Dew Point: 70.5 °F /  21.4 °C 53.4 °F /  11.9 °C 60.8 °F /  16 °C
Humidity: 94% 54% 74%
Wind Speed: 11mph /  17.7km/h - 1.2mph /  1.9km/h
Wind Gust: 11mph /  17.7km/h - -
Wind- - SSE
Pressure: 29.8 in /  1010.2 hPa 29.8 in /  1007.8 hPa -
Precipitation: 0.35 in /  8.9 mm    
Historical Graphs
 
 
Tabular Data for June 22, 2022
Time Temperature Dew Point Pressure Wind Wind Speed Wind Gust Humidity Rainfall Rate (Hourly) solar
00:02 71.1 °F /  21.7 °C 57.7 °F /  14.3 °C 29.8in /  1009.8hPa Calm     63% 0in /  0.0mm 0 W/m2
00:07 71.1 °F /  21.7 °C 57.7 °F /  14.3 °C 29.8in /  1009.8hPa Calm   3mph /  4.8km/h 63% 0in /  0.0mm 0 W/m2
00:12 71.1 °F /  21.7 °C 57.4 °F /  14.1 °C 29.8in /  1009.8hPa East 2mph /  3.2km/h 4mph /  6.4km/h 62% 0in /  0.0mm 0 W/m2
00:17 70.9 °F /  21.6 °C 57.2 °F /  14 °C 29.8in /  1009.8hPa SSE 0.9mph /  1.4km/h 3mph /  4.8km/h 62% 0in /  0.0mm 0 W/m2
00:22 70.7 °F /  21.5 °C 57.6 °F /  14.2 °C 29.8in /  1009.8hPa South 0.9mph /  1.4km/h 4mph /  6.4km/h 63% 0in /  0.0mm 0 W/m2
00:27 70.5 °F /  21.4 °C 56.8 °F /  13.8 °C 29.8in /  1009.8hPa Calm   3mph /  4.8km/h 62% 0in /  0.0mm 0 W/m2
00:32 70.5 °F /  21.4 °C 56.8 °F /  13.8 °C 29.8in /  1009.8hPa North 2mph /  3.2km/h 3mph /  4.8km/h 62% 0in /  0.0mm 0 W/m2
00:37 70.3 °F /  21.3 °C 57.2 °F /  14 °C 29.8in /  1009.8hPa Calm   2mph /  3.2km/h 63% 0in /  0.0mm 0 W/m2
00:42 70.3 °F /  21.3 °C 57.2 °F /  14 °C 29.8in /  1009.8hPa NW 0.9mph /  1.4km/h 3mph /  4.8km/h 63% 0in /  0.0mm 0 W/m2
00:47 70.2 °F /  21.2 °C 57 °F /  13.9 °C 29.8in /  1009.8hPa North 0.9mph /  1.4km/h 3mph /  4.8km/h 63% 0in /  0.0mm 0 W/m2
00:52 70 °F /  21.1 °C 56.8 °F /  13.8 °C 29.8in /  1009.8hPa WNW 0.9mph /  1.4km/h 3mph /  4.8km/h 63% 0in /  0.0mm 0 W/m2
00:57 69.8 °F /  21 °C 56.7 °F /  13.7 °C 29.8in /  1009.8hPa ENE 2mph /  3.2km/h 2mph /  3.2km/h 63% 0in /  0.0mm 0 W/m2
01:02 69.6 °F /  20.9 °C 56.5 °F /  13.6 °C 29.8in /  1009.8hPa North 2.9mph /  4.7km/h 3mph /  4.8km/h 63% 0in /  0.0mm 0 W/m2
01:07 69.4 °F /  20.8 °C 56.7 °F /  13.7 °C 29.8in /  1009.8hPa Calm   1mph /  1.6km/h 64% 0in /  0.0mm 0 W/m2
01:12 69.3 °F /  20.7 °C 56.5 °F /  13.6 °C 29.8in /  1009.8hPa East 0.9mph /  1.4km/h 4mph /  6.4km/h 64% 0in /  0.0mm 0 W/m2
01:17 69.3 °F /  20.7 °C 56.5 °F /  13.6 °C 29.8in /  1009.8hPa Calm   1mph /  1.6km/h 64% 0in /  0.0mm 0 W/m2
01:22 69.1 °F /  20.6 °C 56.5 °F /  13.6 °C 29.8in /  1009.8hPa Calm   3mph /  4.8km/h 64% 0in /  0.0mm 0 W/m2
01:27 68.9 °F /  20.5 °C 56.7 °F /  13.7 °C 29.8in /  1009.8hPa ENE 4mph /  6.4km/h 4mph /  6.4km/h 65% 0in /  0.0mm 0 W/m2
01:32 68.7 °F /  20.4 °C 56.1 °F /  13.4 °C 29.8in /  1009.5hPa ENE 2mph /  3.2km/h 2mph /  3.2km/h 64% 0in /  0.0mm 0 W/m2
01:37 68.5 °F /  20.3 °C 56.3 °F /  13.5 °C 29.8in /  1009.5hPa WNW 2.9mph /  4.7km/h 3mph /  4.8km/h 65% 0in /  0.0mm 0 W/m2
01:42 68.4 °F /  20.2 °C 56.1 °F /  13.4 °C 29.8in /  1009.8hPa Calm   1mph /  1.6km/h 65% 0in /  0.0mm 0 W/m2
01:47 68.2 °F /  20.1 °C 55.9 °F /  13.3 °C 29.8in /  1009.8hPa NE 0.9mph /  1.4km/h 3mph /  4.8km/h 65% 0in /  0.0mm 0 W/m2
01:52 68 °F /  20 °C 56.3 °F /  13.5 °C 29.8in /  1009.8hPa NE 2mph /  3.2km/h 3mph /  4.8km/h 66% 0in /  0.0mm 0 W/m2
01:57 67.8 °F /  19.9 °C 55.6 °F /  13.1 °C 29.8in /  1009.8hPa Calm   2mph /  3.2km/h 65% 0in /  0.0mm 0 W/m2
02:02 67.8 °F /  19.9 °C 55.6 °F /  13.1 °C 29.8in /  1009.8hPa Calm   2mph /  3.2km/h 65% 0in /  0.0mm 0 W/m2
02:07 67.6 °F /  19.8 °C 55.4 °F /  13 °C 29.8in /  1009.8hPa West 0.9mph /  1.4km/h 3mph /  4.8km/h 65% 0in /  0.0mm 0 W/m2
02:12 67.6 °F /  19.8 °C 55.4 °F /  13 °C 29.8in /  1009.8hPa Calm   3mph /  4.8km/h 65% 0in /  0.0mm 0 W/m2
02:17 67.5 °F /  19.7 °C 55.8 °F /  13.2 °C 29.8in /  1009.8hPa NNE 2mph /  3.2km/h 3mph /  4.8km/h 66% 0in /  0.0mm 0 W/m2
02:22 67.5 °F /  19.7 °C 55.2 °F /  12.9 °C 29.8in /  1009.8hPa WNW 0.9mph /  1.4km/h 3mph /  4.8km/h 65% 0in /  0.0mm 0 W/m2
02:27 67.3 °F /  19.6 °C 55.6 °F /  13.1 °C 29.8in /  1009.8hPa Calm   1mph /  1.6km/h 66% 0in /  0.0mm 0 W/m2
02:32 67.3 °F /  19.6 °C 55.6 °F /  13.1 °C 29.8in /  1009.8hPa WNW 0.9mph /  1.4km/h 3mph /  4.8km/h 66% 0in /  0.0mm 0 W/m2
02:37 66.9 °F /  19.4 °C 55.6 °F /  13.1 °C 29.8in /  1009.8hPa ENE 2.9mph /  4.7km/h 4mph /  6.4km/h 67% 0in /  0.0mm 0 W/m2
02:42 66.9 °F /  19.4 °C 55.6 °F /  13.1 °C 29.8in /  1009.8hPa ENE 2mph /  3.2km/h 3mph /  4.8km/h 67% 0in /  0.0mm 0 W/m2
02:47 66.7 °F /  19.3 °C 55 °F /  12.8 °C 29.8in /  1009.5hPa WNW 2.9mph /  4.7km/h 4mph /  6.4km/h 66% 0in /  0.0mm 0 W/m2
02:52 66.7 °F /  19.3 °C 55 °F /  12.8 °C 29.8in /  1009.5hPa NNW 2mph /  3.2km/h 3mph /  4.8km/h 66% 0in /  0.0mm 0 W/m2
02:57 66.6 °F /  19.2 °C 54.9 °F /  12.7 °C 29.8in /  1009.1hPa WSW 0.9mph /  1.4km/h 3mph /  4.8km/h 66% 0in /  0.0mm 0 W/m2
03:02 66.6 °F /  19.2 °C 54.9 °F /  12.7 °C 29.8in /  1009.1hPa NNW 2.9mph /  4.7km/h 3mph /  4.8km/h 66% 0in /  0.0mm 0 W/m2
03:07 66.4 °F /  19.1 °C 54.7 °F /  12.6 °C 29.8in /  1009.1hPa Calm   3mph /  4.8km/h 66% 0in /  0.0mm 0 W/m2
03:12 66.2 °F /  19 °C 54.9 °F /  12.7 °C 29.8in /  1009.1hPa West 2.9mph /  4.7km/h 4mph /  6.4km/h 67% 0in /  0.0mm 0 W/m2
03:17 66 °F /  18.9 °C 54.7 °F /  12.6 °C 29.8in /  1009.1hPa Calm   1mph /  1.6km/h 67% 0in /  0.0mm 0 W/m2
03:22 66 °F /  18.9 °C 54.7 °F /  12.6 °C 29.8in /  1009.1hPa SSW 4mph /  6.4km/h 4mph /  6.4km/h 67% 0in /  0.0mm 0 W/m2
03:27 65.8 °F /  18.8 °C 54.5 °F /  12.5 °C 29.8in /  1009.1hPa Calm   2mph /  3.2km/h 67% 0in /  0.0mm 0 W/m2
03:32 65.8 °F /  18.8 °C 54.5 °F /  12.5 °C 29.8in /  1009.1hPa WNW 2mph /  3.2km/h 2mph /  3.2km/h 67% 0in /  0.0mm 0 W/m2
03:37 65.8 °F /  18.8 °C 54.5 °F /  12.5 °C 29.8in /  1009.1hPa North 2mph /  3.2km/h 3mph /  4.8km/h 67% 0in /  0.0mm 0 W/m2
03:42 65.8 °F /  18.8 °C 54.1 °F /  12.3 °C 29.8in /  1009.1hPa East 0.9mph /  1.4km/h 3mph /  4.8km/h 66% 0in /  0.0mm 0 W/m2
03:47 65.7 °F /  18.7 °C 54 °F /  12.2 °C 29.8in /  1009.1hPa ESE 2mph /  3.2km/h 4mph /  6.4km/h 66% 0in /  0.0mm 0 W/m2
03:52 65.5 °F /  18.6 °C 53.8 °F /  12.1 °C 29.8in /  1008.8hPa East 0.9mph /  1.4km/h 3mph /  4.8km/h 66% 0in /  0.0mm 0 W/m2
03:57 65.5 °F /  18.6 °C 54.3 °F /  12.4 °C 29.8in /  1008.8hPa Calm   2mph /  3.2km/h 67% 0in /  0.0mm 0 W/m2
04:02 65.1 °F /  18.4 °C 54 °F /  12.2 °C 29.8in /  1008.8hPa NW 0.9mph /  1.4km/h 1mph /  1.6km/h 67% 0in /  0.0mm 0 W/m2
04:07 65.1 °F /  18.4 °C 54 °F /  12.2 °C 29.8in /  1008.8hPa WNW 0.9mph /  1.4km/h 3mph /  4.8km/h 67% 0in /  0.0mm 0 W/m2
04:12 64.9 °F /  18.3 °C 54.1 °F /  12.3 °C 29.8in /  1009.1hPa NE 0.9mph /  1.4km/h 2mph /  3.2km/h 68% 0in /  0.0mm 0 W/m2
04:17 64.9 °F /  18.3 °C 54.1 °F /  12.3 °C 29.8in /  1009.1hPa NNW 0.9mph /  1.4km/h 2mph /  3.2km/h 68% 0in /  0.0mm 0 W/m2
04:22 64.9 °F /  18.3 °C 54.1 °F /  12.3 °C 29.8in /  1009.1hPa ENE 0.9mph /  1.4km/h 2mph /  3.2km/h 68% 0in /  0.0mm 0 W/m2
04:27 64.9 °F /  18.3 °C 54.1 °F /  12.3 °C 29.8in /  1009.1hPa Calm   1mph /  1.6km/h 68% 0in /  0.0mm 0 W/m2
04:32 64.8 °F /  18.2 °C 54 °F /  12.2 °C 29.8in /  1008.8hPa Calm     68% 0in /  0.0mm 0 W/m2
04:37 64.8 °F /  18.2 °C 54 °F /  12.2 °C 29.8in /  1009.1hPa NE 0.9mph /  1.4km/h 1mph /  1.6km/h 68% 0in /  0.0mm 0 W/m2
04:42 64.8 °F /  18.2 °C 54 °F /  12.2 °C 29.8in /  1009.1hPa Calm   2mph /  3.2km/h 68% 0in /  0.0mm 0 W/m2
04:47 64.6 °F /  18.1 °C 53.8 °F /  12.1 °C 29.8in /  1009.1hPa Calm   3mph /  4.8km/h 68% 0in /  0.0mm 0 W/m2
04:52 64.6 °F /  18.1 °C 53.8 °F /  12.1 °C 29.8in /  1009.1hPa Calm   1mph /  1.6km/h 68% 0in /  0.0mm 0 W/m2
04:57 64.4 °F /  18 °C 54 °F /  12.2 °C 29.8in /  1009.1hPa Calm   1mph /  1.6km/h 69% 0in /  0.0mm 0 W/m2
05:02 64.4 °F /  18 °C 53.6 °F /  12 °C 29.8in /  1009.1hPa Calm   2mph /  3.2km/h 68% 0in /  0.0mm 0 W/m2
05:07 64.2 °F /  17.9 °C 53.8 °F /  12.1 °C 29.8in /  1008.8hPa East 0.9mph /  1.4km/h 1mph /  1.6km/h 69% 0in /  0.0mm 0 W/m2
05:12 64.2 °F /  17.9 °C 53.8 °F /  12.1 °C 29.8in /  1008.8hPa East 0.9mph /  1.4km/h 1mph /  1.6km/h 69% 0in /  0.0mm 0 W/m2
05:17 64 °F /  17.8 °C 53.6 °F /  12 °C 29.8in /  1009.1hPa Calm   2mph /  3.2km/h 69% 0in /  0.0mm 0 W/m2
05:22 64 °F /  17.8 °C 53.6 °F /  12 °C 29.8in /  1009.1hPa Calm   3mph /  4.8km/h 69% 0in /  0.0mm 7 W/m2
05:27 64 °F /  17.8 °C 53.6 °F /  12 °C 29.8in /  1009.1hPa Calm   1mph /  1.6km/h 69% 0in /  0.0mm 7 W/m2
05:32 63.9 °F /  17.7 °C 54 °F /  12.2 °C 29.8in /  1009.1hPa Calm   3mph /  4.8km/h 70% 0in /  0.0mm 5 W/m2
05:37 63.7 °F /  17.6 °C 53.8 °F /  12.1 °C 29.8in /  1009.1hPa Calm   1mph /  1.6km/h 70% 0in /  0.0mm 5 W/m2
05:42 63.7 °F /  17.6 °C 53.8 °F /  12.1 °C 29.8in /  1009.1hPa Calm   1mph /  1.6km/h 70% 0in /  0.0mm 7 W/m2
05:47 63.7 °F /  17.6 °C 53.8 °F /  12.1 °C 29.8in /  1009.1hPa Calm     70% 0in /  0.0mm 9 W/m2
05:52 63.5 °F /  17.5 °C 53.6 °F /  12 °C 29.8in /  1009.5hPa Calm     70% 0in /  0.0mm 11 W/m2
05:57 63.5 °F /  17.5 °C 53.6 °F /  12 °C 29.8in /  1009.1hPa Calm     70% 0in /  0.0mm 16 W/m2
06:02 63.3 °F /  17.4 °C 53.4 °F /  11.9 °C 29.8in /  1009.1hPa Calm     70% 0in /  0.0mm 18 W/m2
06:07 63.3 °F /  17.4 °C 53.8 °F /  12.1 °C 29.8in /  1009.1hPa Calm   1mph /  1.6km/h 71% 0in /  0.0mm 16 W/m2
06:12 63.3 °F /  17.4 °C 53.4 °F /  11.9 °C 29.8in /  1009.1hPa Calm   1mph /  1.6km/h 70% 0in /  0.0mm 19 W/m2
06:17 63.3 °F /  17.4 °C 53.4 °F /  11.9 °C 29.8in /  1009.1hPa Calm     70% 0in /  0.0mm 23 W/m2
06:22 63.3 °F /  17.4 °C 53.4 °F /  11.9 °C 29.8in /  1009.1hPa ENE 0.9mph /  1.4km/h 4mph /  6.4km/h 70% 0in /  0.0mm 21 W/m2
06:27 63.5 °F /  17.5 °C 53.6 °F /  12 °C 29.8in /  1009.1hPa East 2mph /  3.2km/h 2mph /  3.2km/h 70% 0in /  0.0mm 23 W/m2
06:32 63.5 °F /  17.5 °C 53.6 °F /  12 °C 29.8in /  1009.1hPa East 2mph /  3.2km/h 4mph /  6.4km/h 70% 0in /  0.0mm 28 W/m2
06:37 63.5 °F /  17.5 °C 53.6 °F /  12 °C 29.8in /  1009.1hPa Calm   1mph /  1.6km/h 70% 0in /  0.0mm 35 W/m2
06:42 63.5 °F /  17.5 °C 53.6 °F /  12 °C 29.8in /  1009.1hPa NW 2mph /  3.2km/h 2mph /  3.2km/h 70% 0in /  0.0mm 40 W/m2
06:47 63.7 °F /  17.6 °C 54.1 °F /  12.3 °C 29.8in /  1009.1hPa Calm     71% 0in /  0.0mm 47 W/m2
06:52 63.7 °F /  17.6 °C 54.1 °F /  12.3 °C 29.8in /  1009.1hPa Calm   2mph /  3.2km/h 71% 0in /  0.0mm 62 W/m2
06:57 63.7 °F /  17.6 °C 53.8 °F /  12.1 °C 29.8in /  1009.5hPa WNW 0.9mph /  1.4km/h 1mph /  1.6km/h 70% 0in /  0.0mm 65 W/m2
07:02 63.9 °F /  17.7 °C 54 °F /  12.2 °C 29.8in /  1009.5hPa Calm   2mph /  3.2km/h 70% 0in /  0.0mm 62 W/m2
07:07 64 °F /  17.8 °C 54.1 °F /  12.3 °C 29.8in /  1009.5hPa Calm   2mph /  3.2km/h 70% 0in /  0.0mm 60 W/m2
07:12 64 °F /  17.8 °C 53.6 °F /  12 °C 29.8in /  1009.5hPa WNW 2mph /  3.2km/h 3mph /  4.8km/h 69% 0in /  0.0mm 65 W/m2
07:17 64.2 °F /  17.9 °C 53.8 °F /  12.1 °C 29.8in /  1009.5hPa Calm   3mph /  4.8km/h 69% 0in /  0.0mm 62 W/m2
07:22 64.2 °F /  17.9 °C 53.8 °F /  12.1 °C 29.8in /  1009.5hPa North 0.9mph /  1.4km/h 3mph /  4.8km/h 69% 0in /  0.0mm 51 W/m2
07:28 64.2 °F /  17.9 °C 53.8 °F /  12.1 °C 29.8in /  1009.5hPa NE 2mph /  3.2km/h 3mph /  4.8km/h 69% 0in /  0.0mm 42 W/m2
07:33 64.2 °F /  17.9 °C 53.8 °F /  12.1 °C 29.8in /  1009.5hPa Calm   3mph /  4.8km/h 69% 0in /  0.0mm 40 W/m2
07:38 64.2 °F /  17.9 °C 53.8 °F /  12.1 °C 29.8in /  1009.8hPa Calm   2mph /  3.2km/h 69% 0in /  0.0mm 35 W/m2
07:43 64.2 °F /  17.9 °C 53.8 °F /  12.1 °C 29.8in /  1009.8hPa North 0.9mph /  1.4km/h 3mph /  4.8km/h 69% 0in /  0.0mm 30 W/m2
07:48 64.4 °F /  18 °C 54 °F /  12.2 °C 29.8in /  1009.5hPa Calm   1mph /  1.6km/h 69% 0in /  0.0mm 33 W/m2
07:53 64.4 °F /  18 °C 54 °F /  12.2 °C 29.8in /  1009.5hPa Calm   2mph /  3.2km/h 69% 0in /  0.0mm 49 W/m2
07:58 64.6 °F /  18.1 °C 54.1 °F /  12.3 °C 29.8in /  1009.5hPa Calm   1mph /  1.6km/h 69% 0in /  0.0mm 62 W/m2
08:03 64.6 °F /  18.1 °C 54.1 °F /  12.3 °C 29.8in /  1009.5hPa North 0.9mph /  1.4km/h 2mph /  3.2km/h 69% 0in /  0.0mm 62 W/m2
08:08 64.6 °F /  18.1 °C 54.5 °F /  12.5 °C 29.8in /  1009.5hPa NE 2mph /  3.2km/h 6mph /  9.7km/h 70% 0in /  0.0mm 98 W/m2
08:13 64.6 °F /  18.1 °C 54.5 °F /  12.5 °C 29.8in /  1009.5hPa ENE 0.9mph /  1.4km/h 3mph /  4.8km/h 70% 0in /  0.0mm 160 W/m2
08:18 64.6 °F /  18.1 °C 55 °F /  12.8 °C 29.8in /  1009.1hPa NE 0.9mph /  1.4km/h 2mph /  3.2km/h 71% 0in /  0.0mm 183 W/m2
08:23 64.8 °F /  18.2 °C 55.2 °F /  12.9 °C 29.8in /  1009.1hPa Calm   2mph /  3.2km/h 71% 0in /  0.0mm 118 W/m2
08:28 64.9 °F /  18.3 °C 55.8 °F /  13.2 °C 29.8in /  1008.8hPa Calm   1mph /  1.6km/h 72% 0in /  0.0mm 128 W/m2
08:33 64.9 °F /  18.3 °C 55.4 °F /  13 °C 29.8in /  1008.8hPa SE 0.9mph /  1.4km/h 2mph /  3.2km/h 71% 0in /  0.0mm 118 W/m2
08:38 65.1 °F /  18.4 °C 55.4 °F /  13 °C 29.8in /  1008.8hPa Calm   2mph /  3.2km/h 71% 0in /  0.0mm 95 W/m2
08:43 64.9 °F /  18.3 °C 55.4 °F /  13 °C 29.8in /  1009.1hPa NE 0.9mph /  1.4km/h 2mph /  3.2km/h 71% 0in /  0.0mm 97 W/m2
08:48 64.9 °F /  18.3 °C 55.4 °F /  13 °C 29.8in /  1009.1hPa NE 2mph /  3.2km/h 2mph /  3.2km/h 71% 0in /  0.0mm 109 W/m2
08:53 64.9 °F /  18.3 °C 55.8 °F /  13.2 °C 29.8in /  1009.1hPa ESE 2mph /  3.2km/h 3mph /  4.8km/h 72% 0in /  0.0mm 113 W/m2
08:58 64.9 °F /  18.3 °C 55.8 °F /  13.2 °C 29.8in /  1009.1hPa Calm   1mph /  1.6km/h 72% 0in /  0.0mm 100 W/m2
09:03 65.1 °F /  18.4 °C 55.4 °F /  13 °C 29.8in /  1009.1hPa Calm   3mph /  4.8km/h 71% 0in /  0.0mm 90 W/m2
09:08 65.1 °F /  18.4 °C 55.4 °F /  13 °C 29.8in /  1009.1hPa SSE 0.9mph /  1.4km/h 1mph /  1.6km/h 71% 0in /  0.0mm 86 W/m2
09:13 65.3 °F /  18.5 °C 55.2 °F /  12.9 °C 29.8in /  1009.1hPa Calm   2mph /  3.2km/h 70% 0in /  0.0mm 90 W/m2
09:18 65.5 °F /  18.6 °C 55.4 °F /  13 °C 29.8in /  1009.1hPa ENE 2mph /  3.2km/h 2mph /  3.2km/h 70% 0in /  0.0mm 91 W/m2
09:23 65.7 °F /  18.7 °C 55.6 °F /  13.1 °C 29.8in /  1009.5hPa Calm   1mph /  1.6km/h 70% 0in /  0.0mm 97 W/m2
09:28 65.7 °F /  18.7 °C 55.2 °F /  12.9 °C 29.8in /  1009.5hPa Calm     69% 0in /  0.0mm 100 W/m2
09:33 65.8 °F /  18.8 °C 55.4 °F /  13 °C 29.8in /  1009.5hPa NNW 0.9mph /  1.4km/h 1mph /  1.6km/h 69% 0in /  0.0mm 105 W/m2
09:38 65.8 °F /  18.8 °C 55.4 °F /  13 °C 29.8in /  1009.5hPa Calm   1mph /  1.6km/h 69% 0in /  0.0mm 113 W/m2
09:43 66 °F /  18.9 °C 55.6 °F /  13.1 °C 29.8in /  1009.5hPa Calm   1mph /  1.6km/h 69% 0in /  0.0mm 113 W/m2
09:48 66.4 °F /  19.1 °C 55.9 °F /  13.3 °C 29.8in /  1009.5hPa NNW 0.9mph /  1.4km/h 1mph /  1.6km/h 69% 0in /  0.0mm 113 W/m2
09:53 66.4 °F /  19.1 °C 55.9 °F /  13.3 °C 29.8in /  1009.5hPa Calm   1mph /  1.6km/h 69% 0in /  0.0mm 146 W/m2
09:58 66.6 °F /  19.2 °C 56.1 °F /  13.4 °C 29.8in /  1009.1hPa NE 2mph /  3.2km/h 3mph /  4.8km/h 69% 0in /  0.0mm 185 W/m2
10:03 66.7 °F /  19.3 °C 55.8 °F /  13.2 °C 29.8in /  1009.1hPa ENE 2mph /  3.2km/h 3mph /  4.8km/h 68% 0in /  0.0mm 206 W/m2
10:08 66.9 °F /  19.4 °C 55.9 °F /  13.3 °C 29.8in /  1009.1hPa East 2mph /  3.2km/h 2mph /  3.2km/h 68% 0in /  0.0mm 236 W/m2
10:13 67.3 °F /  19.6 °C 56.3 °F /  13.5 °C 29.8in /  1009.1hPa Calm   2mph /  3.2km/h 68% 0in /  0.0mm 267 W/m2
10:18 67.6 °F /  19.8 °C 56.7 °F /  13.7 °C 29.8in /  1009.1hPa ENE 0.9mph /  1.4km/h 2mph /  3.2km/h 68% 0in /  0.0mm 255 W/m2
10:23 67.8 °F /  19.9 °C 56.8 °F /  13.8 °C 29.8in /  1009.1hPa ENE 2mph /  3.2km/h 4mph /  6.4km/h 68% 0in /  0.0mm 274 W/m2
10:28 68.2 °F /  20.1 °C 56.8 °F /  13.8 °C 29.8in /  1009.1hPa NW 0.9mph /  1.4km/h 5mph /  8km/h 67% 0in /  0.0mm 318 W/m2
10:33 68.5 °F /  20.3 °C 57.2 °F /  14 °C 29.8in /  1009.1hPa NE 0.9mph /  1.4km/h 2mph /  3.2km/h 67% 0in /  0.0mm 452 W/m2
10:38 69.3 °F /  20.7 °C 57.4 °F /  14.1 °C 29.8in /  1008.8hPa Calm   5mph /  8km/h 66% 0in /  0.0mm 548 W/m2
10:43 70 °F /  21.1 °C 58.1 °F /  14.5 °C 29.8in /  1008.8hPa ESE 2mph /  3.2km/h 2mph /  3.2km/h 66% 0in /  0.0mm 485 W/m2
10:48 70.5 °F /  21.4 °C 57.4 °F /  14.1 °C 29.8in /  1009.1hPa East 2mph /  3.2km/h 4mph /  6.4km/h 63% 0in /  0.0mm 494 W/m2
10:53 70.9 °F /  21.6 °C 57.7 °F /  14.3 °C 29.8in /  1009.1hPa ENE 2mph /  3.2km/h 3mph /  4.8km/h 63% 0in /  0.0mm 540 W/m2
10:58 71.2 °F /  21.8 °C 57.6 °F /  14.2 °C 29.8in /  1009.1hPa NNW 0.9mph /  1.4km/h 4mph /  6.4km/h 62% 0in /  0.0mm 390 W/m2
11:03 71.6 °F /  22 °C 57 °F /  13.9 °C 29.8in /  1009.1hPa ENE 0.9mph /  1.4km/h 5mph /  8km/h 60% 0in /  0.0mm 345 W/m2
11:08 71.8 °F /  22.1 °C 57.2 °F /  14 °C 29.8in /  1009.1hPa NE 2mph /  3.2km/h 4mph /  6.4km/h 60% 0in /  0.0mm 394 W/m2
11:13 72 °F /  22.2 °C 57.7 °F /  14.3 °C 29.8in /  1009.1hPa East 2.9mph /  4.7km/h 5mph /  8km/h 61% 0in /  0.0mm 396 W/m2
11:18 72.1 °F /  22.3 °C 57.9 °F /  14.4 °C 29.8in /  1009.1hPa SSE 2mph /  3.2km/h 4mph /  6.4km/h 61% 0in /  0.0mm 366 W/m2
11:23 72.7 °F /  22.6 °C 57.9 °F /  14.4 °C 29.8in /  1009.1hPa SSE 2.9mph /  4.7km/h 4mph /  6.4km/h 60% 0in /  0.0mm 761 W/m2
11:28 73.2 °F /  22.9 °C 58.5 °F /  14.7 °C 29.8in /  1009.1hPa East 2.9mph /  4.7km/h 6mph /  9.7km/h 60% 0in /  0.0mm 791 W/m2
11:33 73.9 °F /  23.3 °C 59.2 °F /  15.1 °C 29.8in /  1009.1hPa NE 2mph /  3.2km/h 4mph /  6.4km/h 60% 0in /  0.0mm 564 W/m2
11:38 74.5 °F /  23.6 °C 59.2 °F /  15.1 °C 29.8in /  1009.1hPa Calm   3mph /  4.8km/h 59% 0in /  0.0mm 541 W/m2
11:43 74.7 °F /  23.7 °C 59.4 °F /  15.2 °C 29.8in /  1009.1hPa NE 2.9mph /  4.7km/h 7mph /  11.3km/h 59% 0in /  0.0mm 874 W/m2
11:48 75 °F /  23.9 °C 59.7 °F /  15.4 °C 29.8in /  1009.1hPa ESE 2.9mph /  4.7km/h 5mph /  8km/h 59% 0in /  0.0mm 798 W/m2
11:53 75.6 °F /  24.2 °C 59.2 °F /  15.1 °C 29.8in /  1009.1hPa ESE 4mph /  6.4km/h 5mph /  8km/h 57% 0in /  0.0mm 455 W/m2
11:58 75.6 °F /  24.2 °C 59.2 °F /  15.1 °C 29.8in /  1009.1hPa ESE 2mph /  3.2km/h 4mph /  6.4km/h 57% 0in /  0.0mm 515 W/m2
12:03 75.6 °F /  24.2 °C 59.7 °F /  15.4 °C 29.8in /  1009.1hPa NNE 2mph /  3.2km/h 3mph /  4.8km/h 58% 0in /  0.0mm 712 W/m2
12:08 75.9 °F /  24.4 °C 59.5 °F /  15.3 °C 29.8in /  1009.1hPa NE 2mph /  3.2km/h 6mph /  9.7km/h 57% 0in /  0.0mm 710 W/m2
12:13 76.3 °F /  24.6 °C 60.4 °F /  15.8 °C 29.8in /  1009.1hPa SE 2.9mph /  4.7km/h 7mph /  11.3km/h 58% 0in /  0.0mm 589 W/m2
12:18 76.8 °F /  24.9 °C 60.4 °F /  15.8 °C 29.8in /  1008.8hPa ESE 0.9mph /  1.4km/h 4mph /  6.4km/h 57% 0in /  0.0mm 682 W/m2
12:23 77.4 °F /  25.2 °C 60.4 °F /  15.8 °C 29.8in /  1008.8hPa ENE 4mph /  6.4km/h 7mph /  11.3km/h 56% 0in /  0.0mm 603 W/m2
12:28 77.5 °F /  25.3 °C 60.1 °F /  15.6 °C 29.8in /  1008.8hPa East 2mph /  3.2km/h 4mph /  6.4km/h 55% 0in /  0.0mm 573 W/m2
12:33 77.5 °F /  25.3 °C 60.6 °F /  15.9 °C 29.8in /  1008.8hPa ESE 4mph /  6.4km/h 5mph /  8km/h 56% 0in /  0.0mm 877 W/m2
12:38 78.1 °F /  25.6 °C 61.2 °F /  16.2 °C 29.8in /  1008.8hPa SE 2.9mph /  4.7km/h 4mph /  6.4km/h 56% 0in /  0.0mm 580 W/m2
12:43 78.4 °F /  25.8 °C 61.5 °F /  16.4 °C 29.8in /  1008.8hPa NE 4mph /  6.4km/h 4mph /  6.4km/h 56% 0in /  0.0mm 555 W/m2
12:48 78.4 °F /  25.8 °C 60.4 °F /  15.8 °C 29.8in /  1008.8hPa North 2.9mph /  4.7km/h 4mph /  6.4km/h 54% 0in /  0.0mm 728 W/m2
12:53 78.6 °F /  25.9 °C 63.1 °F /  17.3 °C 29.8in /  1008.8hPa SE 2mph /  3.2km/h 7mph /  11.3km/h 59% 0in /  0.0mm 487 W/m2
12:58 79 °F /  26.1 °C 63.9 °F /  17.7 °C 29.8in /  1008.8hPa ENE 6.9mph /  11.1km/h 7mph /  11.3km/h 60% 0in /  0.0mm 533 W/m2
13:03 78.6 °F /  25.9 °C 63.5 °F /  17.5 °C 29.8in /  1008.8hPa ENE 2.9mph /  4.7km/h 4mph /  6.4km/h 60% 0in /  0.0mm 584 W/m2
13:08 79.2 °F /  26.2 °C 64.6 °F /  18.1 °C 29.8in /  1008.8hPa ENE 2mph /  3.2km/h 6mph /  9.7km/h 61% 0in /  0.0mm 496 W/m2
13:13 79.3 °F /  26.3 °C 64.2 °F /  17.9 °C 29.8in /  1008.8hPa NE 2mph /  3.2km/h 9mph /  14.5km/h 60% 0in /  0.0mm 469 W/m2
13:18 79.3 °F /  26.3 °C 64.8 °F /  18.2 °C 29.8in /  1008.8hPa East 4mph /  6.4km/h 4mph /  6.4km/h 61% 0in /  0.0mm 650 W/m2
13:23 79.3 °F /  26.3 °C 64.8 °F /  18.2 °C 29.8in /  1008.8hPa ENE 2.9mph /  4.7km/h 9mph /  14.5km/h 61% 0in /  0.0mm 403 W/m2
13:28 79.3 °F /  26.3 °C 64.8 °F /  18.2 °C 29.8in /  1008.8hPa East 0.9mph /  1.4km/h 6mph /  9.7km/h 61% 0in /  0.0mm 362 W/m2
13:33 79.3 °F /  26.3 °C 65.7 °F /  18.7 °C 29.8in /  1008.8hPa East 6mph /  9.7km/h 7mph /  11.3km/h 63% 0in /  0.0mm 290 W/m2
13:38 79 °F /  26.1 °C 65.3 °F /  18.5 °C 29.8in /  1008.8hPa SE 0.9mph /  1.4km/h 2mph /  3.2km/h 63% 0in /  0.0mm 267 W/m2
13:43 79 °F /  26.1 °C 65.3 °F /  18.5 °C 29.8in /  1008.8hPa ESE 0.9mph /  1.4km/h 2mph /  3.2km/h 63% 0in /  0.0mm 302 W/m2
13:48 79 °F /  26.1 °C 65.3 °F /  18.5 °C 29.8in /  1008.8hPa ENE 2mph /  3.2km/h 5mph /  8km/h 63% 0in /  0.0mm 239 W/m2
13:53 78.6 °F /  25.9 °C 64.9 °F /  18.3 °C 29.8in /  1008.8hPa NNW 2mph /  3.2km/h 5mph /  8km/h 63% 0in /  0.0mm 176 W/m2
13:58 78.3 °F /  25.7 °C 65.1 °F /  18.4 °C 29.8in /  1008.5hPa ESE 0.9mph /  1.4km/h 2mph /  3.2km/h 64% 0in /  0.0mm 163 W/m2
14:03 78.1 °F /  25.6 °C 65.3 °F /  18.5 °C 29.8in /  1008.5hPa East 2mph /  3.2km/h 7mph /  11.3km/h 65% 0in /  0.0mm 169 W/m2
14:08 77.7 °F /  25.4 °C 64.9 °F /  18.3 °C 29.8in /  1008.5hPa South 0.9mph /  1.4km/h 6mph /  9.7km/h 65% 0in /  0.0mm 248 W/m2
14:13 77.7 °F /  25.4 °C 64.9 °F /  18.3 °C 29.8in /  1008.5hPa ENE 0.9mph /  1.4km/h 7mph /  11.3km/h 65% 0in /  0.0mm 288 W/m2
14:18 77.7 °F /  25.4 °C 64.9 °F /  18.3 °C 29.8in /  1008.5hPa ESE 0.9mph /  1.4km/h 6mph /  9.7km/h 65% 0in /  0.0mm 264 W/m2
14:23 77.7 °F /  25.4 °C 64.9 °F /  18.3 °C 29.8in /  1008.5hPa SSE 2mph /  3.2km/h 2mph /  3.2km/h 65% 0in /  0.0mm 197 W/m2
14:28 77.7 °F /  25.4 °C 64.9 °F /  18.3 °C 29.8in /  1008.5hPa Calm   3mph /  4.8km/h 65% 0in /  0.0mm 174 W/m2
14:33 77.9 °F /  25.5 °C 65.1 °F /  18.4 °C 29.8in /  1008.5hPa East 0.9mph /  1.4km/h 3mph /  4.8km/h 65% 0in /  0.0mm 144 W/m2
14:38 77.7 °F /  25.4 °C 64.9 °F /  18.3 °C 29.8in /  1008.5hPa East 2mph /  3.2km/h 4mph /  6.4km/h 65% 0in /  0.0mm 95 W/m2
14:43 77.5 °F /  25.3 °C 65.3 °F /  18.5 °C 29.8in /  1008.5hPa ESE 0.9mph /  1.4km/h 4mph /  6.4km/h 66% 0in /  0.0mm 93 W/m2
14:48 77.4 °F /  25.2 °C 65.5 °F /  18.6 °C 29.8in /  1008.5hPa SE 2mph /  3.2km/h 2mph /  3.2km/h 67% 0in /  0.0mm 79 W/m2
14:53 77.2 °F /  25.1 °C 65.3 °F /  18.5 °C 29.8in /  1008.5hPa NNE 0.9mph /  1.4km/h 2mph /  3.2km/h 67% 0in /  0.0mm 65 W/m2
14:58 77.2 °F /  25.1 °C 65.3 °F /  18.5 °C 29.8in /  1008.5hPa Calm   2mph /  3.2km/h 67% 0in /  0.0mm 69 W/m2
15:03 77.2 °F /  25.1 °C 65.3 °F /  18.5 °C 29.8in /  1008.5hPa ESE 0.9mph /  1.4km/h 2mph /  3.2km/h 67% 0in /  0.0mm 53 W/m2
15:08 77 °F /  25 °C 65.1 °F /  18.4 °C 29.8in /  1008.5hPa SW 2mph /  3.2km/h 2mph /  3.2km/h 67% 0in /  0.0mm 28 W/m2
15:13 75.6 °F /  24.2 °C 64.8 °F /  18.2 °C 29.8in /  1008.8hPa NW 10.1mph /  16.3km/h 11mph /  17.7km/h 69% 0in /  0.0mm 11 W/m2
15:18 73.2 °F /  22.9 °C 64.4 °F /  18 °C 29.8in /  1008.8hPa NW 6.9mph /  11.1km/h 11mph /  17.7km/h 74% 0in /  0.0mm 12 W/m2
15:23 72 °F /  22.2 °C 64 °F /  17.8 °C 29.8in /  1009.1hPa WNW 4mph /  6.4km/h 8mph /  12.9km/h 76% 0in /  0.0mm 18 W/m2
15:28 70.9 °F /  21.6 °C 64 °F /  17.8 °C 29.8in /  1008.8hPa West 11mph /  17.7km/h 11mph /  17.7km/h 79% 0.06in /  1.5mm 23 W/m2
15:33 69.1 °F /  20.6 °C 64 °F /  17.8 °C 29.8in /  1008.8hPa West 2.9mph /  4.7km/h 6mph /  9.7km/h 84% 0.27in /  6.9mm 28 W/m2
15:38 67.6 °F /  19.8 °C 63.7 °F /  17.6 °C 29.8in /  1008.5hPa West 11mph /  17.7km/h 11mph /  17.7km/h 87% 0.3in /  7.6mm 32 W/m2
15:43 66.9 °F /  19.4 °C 63.5 °F /  17.5 °C 29.8in /  1008.5hPa WNW 2.9mph /  4.7km/h 6mph /  9.7km/h 89% 0.31in /  7.9mm 33 W/m2
15:48 66.7 °F /  19.3 °C 63.7 °F /  17.6 °C 29.8in /  1008.1hPa WNW 0.9mph /  1.4km/h 3mph /  4.8km/h 90% 0.31in /  7.9mm 37 W/m2
15:53 66.7 °F /  19.3 °C 64 °F /  17.8 °C 29.8in /  1008.1hPa WNW 0.9mph /  1.4km/h 2mph /  3.2km/h 91% 0.32in /  8.1mm 42 W/m2
15:58 66.7 °F /  19.3 °C 64.4 °F /  18 °C 29.8in /  1008.1hPa WNW 0.9mph /  1.4km/h 2mph /  3.2km/h 92% 0.33in /  8.4mm 46 W/m2
16:03 66.7 °F /  19.3 °C 64.4 °F /  18 °C 29.8in /  1008.1hPa Calm   1mph /  1.6km/h 92% 0.33in /  8.4mm 47 W/m2
16:08 66.7 °F /  19.3 °C 64.6 °F /  18.1 °C 29.8in /  1008.1hPa NNW 0.9mph /  1.4km/h 1mph /  1.6km/h 93% 0.33in /  8.4mm 51 W/m2
16:13 66.9 °F /  19.4 °C 64.8 °F /  18.2 °C 29.8in /  1008.1hPa WNW 2mph /  3.2km/h 2mph /  3.2km/h 93% 0.34in /  8.6mm 58 W/m2
16:18 66.9 °F /  19.4 °C 64.8 °F /  18.2 °C 29.8in /  1008.5hPa WSW 2mph /  3.2km/h 2mph /  3.2km/h 93% 0.35in /  8.9mm 67 W/m2
16:23 66.7 °F /  19.3 °C 64.6 °F /  18.1 °C 29.8in /  1008.5hPa West 4mph /  6.4km/h 5mph /  8km/h 93% 0.35in /  8.9mm 74 W/m2
16:28 66.6 °F /  19.2 °C 64.4 °F /  18 °C 29.8in /  1008.5hPa Calm   4mph /  6.4km/h 93% 0.27in /  6.9mm 90 W/m2
16:34 66.7 °F /  19.3 °C 64.9 °F /  18.3 °C 29.8in /  1008.5hPa Calm   1mph /  1.6km/h 94% 0.07in /  1.8mm 148 W/m2
16:39 66.7 °F /  19.3 °C 64.9 °F /  18.3 °C 29.8in /  1008.5hPa Calm     94% 0.04in /  1.0mm 232 W/m2
16:44 67.3 °F /  19.6 °C 65.5 °F /  18.6 °C 29.8in /  1008.5hPa NW 4mph /  6.4km/h 4mph /  6.4km/h 94% 0.04in /  1.0mm 278 W/m2
16:49 67.6 °F /  19.8 °C 65.8 °F /  18.8 °C 29.8in /  1008.5hPa WSW 2.9mph /  4.7km/h 7mph /  11.3km/h 94% 0.03in /  0.8mm 295 W/m2
16:54 67.5 °F /  19.7 °C 65.7 °F /  18.7 °C 29.8in /  1008.5hPa Calm   2mph /  3.2km/h 94% 0.02in /  0.5mm 322 W/m2
16:59 67.8 °F /  19.9 °C 66 °F /  18.9 °C 29.8in /  1008.5hPa WSW 0.9mph /  1.4km/h 6mph /  9.7km/h 94% 0.02in /  0.5mm 357 W/m2
17:04 68.2 °F /  20.1 °C 66.4 °F /  19.1 °C 29.8in /  1008.8hPa NNW 2mph /  3.2km/h 3mph /  4.8km/h 94% 0.02in /  0.5mm 399 W/m2
17:09 68.5 °F /  20.3 °C 66.4 °F /  19.1 °C 29.8in /  1008.8hPa Calm   1mph /  1.6km/h 93% 0.02in /  0.5mm 436 W/m2
17:14 69.3 °F /  20.7 °C 67.1 °F /  19.5 °C 29.8in /  1008.8hPa NNW 2mph /  3.2km/h 2mph /  3.2km/h 93% 0.01in /  0.2mm 717 W/m2
17:19 70.2 °F /  21.2 °C 68 °F /  20 °C 29.8in /  1008.5hPa NNW 0.9mph /  1.4km/h 2mph /  3.2km/h 93% 0in /  0.0mm 714 W/m2
17:24 70.9 °F /  21.6 °C 68.4 °F /  20.2 °C 29.8in /  1008.5hPa WNW 2mph /  3.2km/h 4mph /  6.4km/h 92% 0in /  0.0mm 749 W/m2
17:29 72 °F /  22.2 °C 69.3 °F /  20.7 °C 29.8in /  1008.5hPa NE 0.9mph /  1.4km/h 2mph /  3.2km/h 91% 0in /  0.0mm 677 W/m2
17:34 72.5 °F /  22.5 °C 68.4 °F /  20.2 °C 29.8in /  1008.5hPa NE 2mph /  3.2km/h 4mph /  6.4km/h 87% 0in /  0.0mm 568 W/m2
17:39 73 °F /  22.8 °C 68.2 °F /  20.1 °C 29.8in /  1008.1hPa Calm   1mph /  1.6km/h 85% 0in /  0.0mm 563 W/m2
17:44 73.6 °F /  23.1 °C 68.4 °F /  20.2 °C 29.8in /  1008.1hPa East 2mph /  3.2km/h 3mph /  4.8km/h 84% 0in /  0.0mm 550 W/m2
17:49 73.9 °F /  23.3 °C 68.4 °F /  20.2 °C 29.8in /  1008.1hPa ENE 0.9mph /  1.4km/h 3mph /  4.8km/h 83% 0in /  0.0mm 489 W/m2
17:54 74.5 °F /  23.6 °C 68.9 °F /  20.5 °C 29.8in /  1008.1hPa Calm     83% 0in /  0.0mm 287 W/m2
17:59 74.8 °F /  23.8 °C 68.9 °F /  20.5 °C 29.8in /  1008.1hPa NE 2mph /  3.2km/h 2mph /  3.2km/h 82% 0in /  0.0mm 482 W/m2
18:04 75 °F /  23.9 °C 68 °F /  20 °C 29.8in /  1007.8hPa NNE 2mph /  3.2km/h 3mph /  4.8km/h 79% 0in /  0.0mm 457 W/m2
18:09 75.4 °F /  24.1 °C 68 °F /  20 °C 29.8in /  1007.8hPa NE 0.9mph /  1.4km/h 2mph /  3.2km/h 78% 0in /  0.0mm 471 W/m2
18:14 75.7 °F /  24.3 °C 69.4 °F /  20.8 °C 29.8in /  1007.8hPa East 2.9mph /  4.7km/h 3mph /  4.8km/h 81% 0in /  0.0mm 455 W/m2
18:19 75.9 °F /  24.4 °C 68.9 °F /  20.5 °C 29.8in /  1007.8hPa East 0.9mph /  1.4km/h 5mph /  8km/h 79% 0in /  0.0mm 478 W/m2
18:24 75.9 °F /  24.4 °C 68.2 °F /  20.1 °C 29.8in /  1007.8hPa SE 2.9mph /  4.7km/h 4mph /  6.4km/h 77% 0in /  0.0mm 464 W/m2
18:29 76.1 °F /  24.5 °C 68.7 °F /  20.4 °C 29.8in /  1007.8hPa East 0.9mph /  1.4km/h 4mph /  6.4km/h 78% 0in /  0.0mm 392 W/m2
18:34 76.1 °F /  24.5 °C 68.7 °F /  20.4 °C 29.8in /  1007.8hPa SE 2mph /  3.2km/h 3mph /  4.8km/h 78% 0in /  0.0mm 385 W/m2
18:39 76.3 °F /  24.6 °C 69.6 °F /  20.9 °C 29.8in /  1007.8hPa Calm   2mph /  3.2km/h 80% 0in /  0.0mm 287 W/m2
18:44 76.3 °F /  24.6 °C 70 °F /  21.1 °C 29.8in /  1007.8hPa SE 0.9mph /  1.4km/h 1mph /  1.6km/h 81% 0in /  0.0mm 251 W/m2
18:49 76.3 °F /  24.6 °C 70.3 °F /  21.3 °C 29.8in /  1007.8hPa SE 0.9mph /  1.4km/h 1mph /  1.6km/h 82% 0in /  0.0mm 262 W/m2
18:54 76.1 °F /  24.5 °C 70.2 °F /  21.2 °C 29.8in /  1007.8hPa ESE 0.9mph /  1.4km/h 3mph /  4.8km/h 82% 0in /  0.0mm 204 W/m2
18:59 75.9 °F /  24.4 °C 69.3 °F /  20.7 °C 29.8in /  1007.8hPa SSE 0.9mph /  1.4km/h 1mph /  1.6km/h 80% 0in /  0.0mm 172 W/m2
19:04 76.1 °F /  24.5 °C 70.2 °F /  21.2 °C 29.8in /  1007.8hPa ESE 0.9mph /  1.4km/h 1mph /  1.6km/h 82% 0in /  0.0mm 165 W/m2
19:09 76.1 °F /  24.5 °C 70.2 °F /  21.2 °C 29.8in /  1008.1hPa Calm   2mph /  3.2km/h 82% 0in /  0.0mm 171 W/m2
19:14 76.1 °F /  24.5 °C 70.5 °F /  21.4 °C 29.8in /  1008.5hPa Calm   1mph /  1.6km/h 83% 0in /  0.0mm 174 W/m2
19:19 76.1 °F /  24.5 °C 70.2 °F /  21.2 °C 29.8in /  1008.5hPa SE 0.9mph /  1.4km/h 2mph /  3.2km/h 82% 0in /  0.0mm 162 W/m2
19:24 75.9 °F /  24.4 °C 70 °F /  21.1 °C 29.8in /  1008.5hPa Calm     82% 0in /  0.0mm 156 W/m2
19:29 75.9 °F /  24.4 °C 70 °F /  21.1 °C 29.8in /  1008.5hPa South 2mph /  3.2km/h 2mph /  3.2km/h 82% 0in /  0.0mm 146 W/m2
19:34 75.7 °F /  24.3 °C 69.8 °F /  21 °C 29.8in /  1008.5hPa Calm   1mph /  1.6km/h 82% 0in /  0.0mm 137 W/m2
19:39 75.7 °F /  24.3 °C 70.2 °F /  21.2 °C 29.8in /  1008.5hPa South 0.9mph /  1.4km/h 2mph /  3.2km/h 83% 0in /  0.0mm 128 W/m2
19:44 75.6 °F /  24.2 °C 70.3 °F /  21.3 °C 29.8in /  1008.5hPa SSW 0.9mph /  1.4km/h 1mph /  1.6km/h 84% 0in /  0.0mm 114 W/m2
19:49 75.4 °F /  24.1 °C 70.2 °F /  21.2 °C 29.8in /  1008.5hPa Calm   1mph /  1.6km/h 84% 0in /  0.0mm 97 W/m2
19:54 75.4 °F /  24.1 °C 69.4 °F /  20.8 °C 29.8in /  1008.1hPa NNE 0.9mph /  1.4km/h 3mph /  4.8km/h 82% 0in /  0.0mm 91 W/m2
19:59 75 °F /  23.9 °C 69.4 °F /  20.8 °C 29.8in /  1008.1hPa SE 0.9mph /  1.4km/h 2mph /  3.2km/h 83% 0in /  0.0mm 65 W/m2
20:04 74.7 °F /  23.7 °C 69.4 °F /  20.8 °C 29.8in /  1008.1hPa Calm   3mph /  4.8km/h 84% 0in /  0.0mm 102 W/m2
20:09 74.5 °F /  23.6 °C 69.3 °F /  20.7 °C 29.8in /  1008.5hPa SE 2mph /  3.2km/h 2mph /  3.2km/h 84% 0in /  0.0mm 49 W/m2
20:14 73.9 °F /  23.3 °C 68.2 °F /  20.1 °C 29.8in /  1008.1hPa SSW 2.9mph /  4.7km/h 3mph /  4.8km/h 82% 0in /  0.0mm 42 W/m2
20:19 73.6 °F /  23.1 °C 68.2 °F /  20.1 °C 29.8in /  1008.5hPa Calm   1mph /  1.6km/h 83% 0in /  0.0mm 53 W/m2
20:24 73.2 °F /  22.9 °C 68.2 °F /  20.1 °C 29.8in /  1008.5hPa Calm   3mph /  4.8km/h 84% 0in /  0.0mm 53 W/m2
20:29 72.7 °F /  22.6 °C 67.8 °F /  19.9 °C 29.8in /  1008.1hPa South 0.9mph /  1.4km/h 1mph /  1.6km/h 85% 0in /  0.0mm 56 W/m2
20:34 72.3 °F /  22.4 °C 67.8 °F /  19.9 °C 29.8in /  1008.5hPa Calm   1mph /  1.6km/h 86% 0in /  0.0mm 63 W/m2
20:39 72 °F /  22.2 °C 67.5 °F /  19.7 °C 29.8in /  1008.5hPa Calm   1mph /  1.6km/h 86% 0in /  0.0mm 69 W/m2
20:44 72 °F /  22.2 °C 67.5 °F /  19.7 °C 29.8in /  1008.1hPa SE 0.9mph /  1.4km/h 1mph /  1.6km/h 86% 0in /  0.0mm 69 W/m2
20:49 72 °F /  22.2 °C 67.5 °F /  19.7 °C 29.8in /  1008.1hPa Calm   1mph /  1.6km/h 86% 0in /  0.0mm 65 W/m2
20:54 71.8 °F /  22.1 °C 67.3 °F /  19.6 °C 29.8in /  1008.1hPa East 0.9mph /  1.4km/h 2mph /  3.2km/h 86% 0in /  0.0mm 56 W/m2
20:59 71.8 °F /  22.1 °C 67.3 °F /  19.6 °C 29.8in /  1008.1hPa SE 0.9mph /  1.4km/h 1mph /  1.6km/h 86% 0in /  0.0mm 49 W/m2
21:04 71.8 °F /  22.1 °C 67.1 °F /  19.5 °C 29.8in /  1008.5hPa Calm   1mph /  1.6km/h 85% 0in /  0.0mm 40 W/m2
21:09 71.6 °F /  22 °C 67.1 °F /  19.5 °C 29.8in /  1008.5hPa Calm   1mph /  1.6km/h 86% 0in /  0.0mm 35 W/m2
21:14 71.4 °F /  21.9 °C 67.1 °F /  19.5 °C 29.8in /  1008.5hPa SSW 0.9mph /  1.4km/h 3mph /  4.8km/h 86% 0in /  0.0mm 28 W/m2
21:19 71.2 °F /  21.8 °C 67.1 °F /  19.5 °C 29.8in /  1008.8hPa Calm   1mph /  1.6km/h 87% 0in /  0.0mm 25 W/m2
21:24 70.9 °F /  21.6 °C 66.7 °F /  19.3 °C 29.8in /  1008.8hPa SSW 0.9mph /  1.4km/h 3mph /  4.8km/h 87% 0in /  0.0mm 19 W/m2
21:29 70.7 °F /  21.5 °C 66.6 °F /  19.2 °C 29.8in /  1008.8hPa Calm     87% 0in /  0.0mm 12 W/m2
21:34 70.5 °F /  21.4 °C 66.7 °F /  19.3 °C 29.8in /  1008.8hPa Calm   1mph /  1.6km/h 88% 0in /  0.0mm 9 W/m2
21:39 70.3 °F /  21.3 °C 66.6 °F /  19.2 °C 29.8in /  1008.5hPa Calm     88% 0in /  0.0mm 9 W/m2
21:44 70.2 °F /  21.2 °C 66.4 °F /  19.1 °C 29.8in /  1008.5hPa Calm     88% 0in /  0.0mm 7 W/m2
21:49 69.8 °F /  21 °C 66 °F /  18.9 °C 29.8in /  1008.8hPa Calm   2mph /  3.2km/h 88% 0in /  0.0mm 5 W/m2
21:54 69.4 °F /  20.8 °C 65.7 °F /  18.7 °C 29.8in /  1009.1hPa SSW 0.9mph /  1.4km/h 2mph /  3.2km/h 88% 0in /  0.0mm 5 W/m2
21:59 69.1 °F /  20.6 °C 65.7 °F /  18.7 °C 29.8in /  1009.1hPa Calm   1mph /  1.6km/h 89% 0in /  0.0mm 0 W/m2
22:04 68.9 °F /  20.5 °C 65.5 °F /  18.6 °C 29.8in /  1009.1hPa Calm   2mph /  3.2km/h 89% 0in /  0.0mm 0 W/m2
22:09 68.5 °F /  20.3 °C 65.1 °F /  18.4 °C 29.8in /  1009.1hPa Calm     89% 0in /  0.0mm 0 W/m2
22:14 68.4 °F /  20.2 °C 64.9 °F /  18.3 °C 29.8in /  1009.1hPa Calm     89% 0in /  0.0mm 0 W/m2
22:19 68.4 °F /  20.2 °C 65.3 °F /  18.5 °C 29.8in /  1009.1hPa Calm     90% 0in /  0.0mm 0 W/m2
22:24 68.2 °F /  20.1 °C 65.1 °F /  18.4 °C 29.8in /  1009.5hPa Calm     90% 0in /  0.0mm 0 W/m2
22:29 68.2 °F /  20.1 °C 65.5 °F /  18.6 °C 29.8in /  1009.5hPa Calm     91% 0in /  0.0mm 0 W/m2
22:34 68 °F /  20 °C 65.3 °F /  18.5 °C 29.8in /  1009.5hPa Calm     91% 0in /  0.0mm 0 W/m2
22:39 67.8 °F /  19.9 °C 65.1 °F /  18.4 °C 29.8in /  1009.8hPa Calm     91% 0in /  0.0mm 0 W/m2
22:44 67.8 °F /  19.9 °C 65.1 °F /  18.4 °C 29.8in /  1009.8hPa Calm   1mph /  1.6km/h 91% 0in /  0.0mm 0 W/m2
22:49 67.6 °F /  19.8 °C 64.9 °F /  18.3 °C 29.8in /  1009.8hPa SSW 0.9mph /  1.4km/h 1mph /  1.6km/h 91% 0in /  0.0mm 0 W/m2
22:54 67.6 °F /  19.8 °C 65.3 °F /  18.5 °C 29.8in /  1009.8hPa Calm   1mph /  1.6km/h 92% 0in /  0.0mm 0 W/m2
22:59 67.6 °F /  19.8 °C 65.3 °F /  18.5 °C 29.8in /  1010.2hPa Calm     92% 0in /  0.0mm 0 W/m2
23:04 67.6 °F /  19.8 °C 65.3 °F /  18.5 °C 29.8in /  1010.2hPa Calm     92% 0in /  0.0mm 0 W/m2
23:09 67.6 °F /  19.8 °C 65.3 °F /  18.5 °C 29.8in /  1010.2hPa Calm     92% 0in /  0.0mm 0 W/m2
23:14 67.6 °F /  19.8 °C 65.3 °F /  18.5 °C 29.8in /  1010.2hPa Calm     92% 0in /  0.0mm 0 W/m2
23:19 67.6 °F /  19.8 °C 65.3 °F /  18.5 °C 29.8in /  1010.2hPa Calm     92% 0in /  0.0mm 0 W/m2
23:24 67.6 °F /  19.8 °C 65.3 °F /  18.5 °C 29.8in /  1010.2hPa Calm     92% 0in /  0.0mm 0 W/m2
23:29 67.6 °F /  19.8 °C 65.3 °F /  18.5 °C 29.8in /  1010.2hPa Calm     92% 0in /  0.0mm 0 W/m2
23:34 67.6 °F /  19.8 °C 65.3 °F /  18.5 °C 29.8in /  1010.2hPa Calm     92% 0in /  0.0mm 0 W/m2
23:39 67.6 °F /  19.8 °C 65.3 °F /  18.5 °C 29.8in /  1010.2hPa Calm     92% 0in /  0.0mm 0 W/m2
23:44 67.5 °F /  19.7 °C 65.1 °F /  18.4 °C 29.8in /  1010.2hPa Calm     92% 0in /  0.0mm 0 W/m2
23:49 67.5 °F /  19.7 °C 65.1 °F /  18.4 °C 29.8in /  1010.2hPa Calm     92% 0in /  0.0mm 0 W/m2
23:54 67.5 °F /  19.7 °C 65.1 °F /  18.4 °C 29.8in /  1010.2hPa Calm     92% 0in /  0.0mm 0 W/m2
23:59 67.5 °F /  19.7 °C 65.1 °F /  18.4 °C 29.8in /  1010.2hPa Calm     92% 0in /  0.0mm 0 W/m2
Juneau County Weather
Compliments of Weather Underground - 4 mb